createdAt,value
2024-02-12T00:01:52.766Z,0
2024-02-12T00:07:18.740Z,1
2024-02-12T00:11:49.915Z,0
2024-02-12T00:16:54.036Z,0
2024-02-12T00:21:49.264Z,0
2024-02-12T00:27:02.246Z,0
2024-02-12T00:31:57.258Z,0
2024-02-12T00:36:56.385Z,0
2024-02-12T00:42:00.484Z,0
2024-02-12T00:46:59.790Z,2
2024-02-12T00:51:58.857Z,0
2024-02-12T00:57:01.261Z,0
2024-02-12T01:02:05.219Z,0
2024-02-12T01:07:05.241Z,0
2024-02-12T01:12:06.150Z,0
2024-02-12T01:17:08.029Z,0
2024-02-12T01:22:04.712Z,0
2024-02-12T01:27:04.558Z,0
2024-02-12T01:32:06.639Z,1.5
2024-02-12T01:36:55.772Z,0
2024-02-12T01:41:57.414Z,3
2024-02-12T01:46:51.793Z,0
2024-02-12T01:51:55.536Z,0
2024-02-12T01:56:53.039Z,0
2024-02-12T02:01:47.800Z,0
2024-02-12T02:06:47.693Z,0
2024-02-12T02:11:56.812Z,0
2024-02-12T02:16:53.936Z,0
2024-02-12T02:21:54.865Z,0
2024-02-12T02:26:55.780Z,0
2024-02-12T02:32:42.121Z,2
2024-02-12T02:36:54.061Z,0
2024-02-12T02:41:59.209Z,0
2024-02-12T02:46:49.088Z,0
2024-02-12T02:51:55.192Z,0
2024-02-12T02:56:47.680Z,1.5
2024-02-12T03:01:46.782Z,0
2024-02-12T03:06:51.164Z,1.5
2024-02-12T03:11:46.848Z,0
2024-02-12T03:16:52.053Z,0
2024-02-12T03:21:47.922Z,0
2024-02-12T03:26:52.604Z,0
2024-02-12T03:31:50.421Z,0
2024-02-12T03:36:54.036Z,0
2024-02-12T03:41:49.620Z,0
2024-02-12T03:46:48.362Z,0
2024-02-12T03:51:50.787Z,0
2024-02-12T03:56:48.543Z,3
2024-02-12T04:02:06.518Z,0
2024-02-12T04:06:59.659Z,0
2024-02-12T04:12:11.348Z,0
2024-02-12T04:16:59.041Z,1.5
2024-02-12T04:22:01.436Z,0
2024-02-12T04:27:03.775Z,0
2024-02-12T04:31:59.281Z,0
2024-02-12T04:37:03.365Z,0
2024-02-12T04:42:01.124Z,0
2024-02-12T04:46:54.928Z,0
2024-02-12T04:51:54.770Z,0
2024-02-12T04:57:05.845Z,2.5
2024-02-12T05:01:58.065Z,1.5
2024-02-12T05:06:57.490Z,0
2024-02-12T05:12:06.948Z,1.333
2024-02-12T05:16:59.217Z,0
2024-02-12T05:21:59.675Z,1.333
2024-02-12T05:27:11.182Z,1
2024-02-12T05:32:04.748Z,0
2024-02-12T05:36:58.668Z,0
2024-02-12T05:41:51.568Z,0
2024-02-12T05:46:53.085Z,1
2024-02-12T05:51:54.737Z,2.444
2024-02-12T05:56:55.200Z,5.533
2024-02-12T06:01:52.289Z,11.615
2024-02-12T06:06:59.265Z,19.462
2024-02-12T06:11:55.004Z,32.462
2024-02-12T06:16:55.321Z,49.385
2024-02-12T06:22:01.997Z,69.154
2024-02-12T06:26:57.530Z,91.667
2024-02-12T06:31:59.880Z,119.818
2024-02-12T06:37:02.533Z,144.091
2024-02-12T06:41:58.955Z,181.7
2024-02-12T06:46:53.886Z,198.2
2024-02-12T06:51:58.749Z,250.889
2024-02-12T06:57:01.111Z,311.25
2024-02-12T07:02:06.754Z,352
2024-02-12T07:07:00.492Z,444.625
2024-02-12T07:12:01.685Z,511.875
2024-02-12T07:17:02.460Z,459.125
2024-02-12T07:22:10.790Z,435.375
2024-02-12T07:27:00.757Z,423.75
2024-02-12T07:31:57.761Z,397.125
2024-02-12T07:37:07.635Z,458.5
2024-02-12T07:42:07.479Z,496.625
2024-02-12T07:47:05.208Z,501.875
2024-02-12T07:52:06.821Z,452.625
2024-02-12T07:57:04.416Z,468.125
2024-02-12T08:02:02.912Z,497.75
2024-02-12T08:07:08.851Z,506.25
2024-02-12T08:12:03.077Z,543.25
2024-02-12T08:17:07.944Z,560.5
2024-02-12T08:22:02.962Z,590.25
2024-02-12T08:27:04.227Z,606.75
2024-02-12T08:32:14.823Z,656.375
2024-02-12T08:37:08.637Z,627
2024-02-12T08:42:06.239Z,695.25
2024-02-12T08:47:05.043Z,833.125
2024-02-12T08:51:58.787Z,1147.625
2024-02-12T08:57:00.218Z,924.125
2024-02-12T09:01:56.692Z,837.125
2024-02-12T09:06:57.795Z,868.375
2024-02-12T09:11:50.812Z,901
2024-02-12T09:16:57.135Z,942.25
2024-02-12T09:21:53.567Z,990.125
2024-02-12T09:26:58.357Z,1054.375
2024-02-12T09:31:55.617Z,1113.75
2024-02-12T09:36:53.039Z,1148.125
2024-02-12T09:41:57.788Z,1228.75
2024-02-12T09:46:53.969Z,1305.5
2024-02-12T09:51:55.604Z,1422.375
2024-02-12T09:56:57.974Z,1536.25
2024-02-12T10:01:54.474Z,1573.25
2024-02-12T10:06:58.059Z,1963.429
2024-02-12T10:11:55.101Z,2478.833
2024-02-12T10:16:56.238Z,2550.167
2024-02-12T10:21:53.038Z,2648.333
2024-02-12T10:26:55.021Z,2649
2024-02-12T10:31:55.921Z,2661.5
2024-02-12T10:36:56.282Z,2628.167
2024-02-12T10:41:55.752Z,2601.333
2024-02-12T10:47:00.736Z,2975.4
2024-02-12T10:51:56.482Z,2629.333
2024-02-12T10:56:53.981Z,2683.667
2024-02-12T11:02:08.125Z,1854.571
2024-02-12T11:07:02.457Z,1903.143
2024-02-12T11:12:05.382Z,2064.571
2024-02-12T11:17:05.015Z,3228.4
2024-02-12T11:22:07.857Z,3180.8
2024-02-12T11:27:04.491Z,3104.8
2024-02-12T11:32:09.351Z,2448.571
2024-02-12T11:37:04.215Z,1551.125
2024-02-12T11:42:03.745Z,2623.667
2024-02-12T11:47:04.268Z,1413
2024-02-12T11:52:14.145Z,1126.625
2024-02-12T11:57:10.534Z,1115.75
2024-02-12T12:02:06.983Z,1124.25
2024-02-12T12:07:09.737Z,1087.25
2024-02-12T12:12:07.572Z,997
2024-02-12T12:17:26.151Z,1034.625
2024-02-12T12:22:06.980Z,1000
2024-02-12T12:27:05.486Z,819
2024-02-12T12:31:59.282Z,582.625
2024-02-12T12:37:01.535Z,634.25
2024-02-12T12:41:56.516Z,758.375
2024-02-12T12:46:56.684Z,751
2024-02-12T12:52:04.084Z,748.25
2024-02-12T12:56:53.511Z,813.875
2024-02-12T13:01:57.647Z,767.875
2024-02-12T13:07:04.319Z,784.75
2024-02-12T13:11:58.037Z,734.5
2024-02-12T13:16:52.580Z,709.375
2024-02-12T13:21:55.549Z,679.625
2024-02-12T13:26:54.765Z,628.125
2024-02-12T13:32:01.127Z,621.875
2024-02-12T13:36:56.626Z,541.125
2024-02-12T13:41:51.930Z,592.625
2024-02-12T13:46:51.809Z,619.75
2024-02-12T13:51:55.042Z,585.25
2024-02-12T13:56:54.480Z,539.25
2024-02-12T14:03:05.137Z,529.375
2024-02-12T14:06:54.739Z,497.5
2024-02-12T14:11:56.504Z,514.25
2024-02-12T14:17:14.668Z,332.5
2024-02-12T14:21:51.344Z,180.9
2024-02-12T14:26:58.333Z,116.667
2024-02-12T14:32:35.269Z,160.364
2024-02-12T14:36:54.988Z,159.182
2024-02-12T14:41:58.391Z,125.333
2024-02-12T14:47:04.198Z,153.636
2024-02-12T14:52:01.406Z,88.692
2024-02-12T14:57:00.244Z,90.154
2024-02-12T15:02:01.292Z,109
2024-02-12T15:07:04.777Z,146.091
2024-02-12T15:11:58.993Z,129.75
2024-02-12T15:17:05.581Z,106.25
2024-02-12T15:21:59.320Z,88.615
2024-02-12T15:27:02.051Z,66.462
2024-02-12T15:31:58.128Z,61.923
2024-02-12T15:37:04.652Z,62.231
2024-02-12T15:42:00.343Z,60.154
2024-02-12T15:47:19.183Z,31.6
2024-02-12T15:51:53.558Z,24.846
2024-02-12T15:57:00.935Z,17.733
2024-02-12T16:01:55.661Z,17.923
2024-02-12T16:06:59.417Z,12.769
2024-02-12T16:12:00.292Z,7.769
2024-02-12T16:16:57.017Z,3.312
2024-02-12T16:21:53.941Z,1
2024-02-12T16:26:52.201Z,0
2024-02-12T16:31:55.827Z,0
2024-02-12T16:36:55.315Z,0
2024-02-12T16:42:00.669Z,2.5
2024-02-12T16:46:58.825Z,2
2024-02-12T16:52:00.732Z,2
2024-02-12T16:57:02.516Z,0
2024-02-12T17:01:52.552Z,0
2024-02-12T17:07:00.133Z,0
2024-02-12T17:11:59.909Z,2.333
2024-02-12T17:16:59.773Z,0
2024-02-12T17:21:54.899Z,0
2024-02-12T17:26:58.010Z,0
2024-02-12T17:32:01.310Z,0
2024-02-12T17:36:55.038Z,0
2024-02-12T17:41:50.615Z,0
2024-02-12T17:46:54.130Z,2.333
2024-02-12T17:52:00.200Z,0
2024-02-12T17:56:59.154Z,0
2024-02-12T18:01:55.728Z,0
2024-02-12T18:06:50.465Z,1.5
2024-02-12T18:11:55.715Z,2.5
2024-02-12T18:17:07.115Z,0
2024-02-12T18:22:08.920Z,0
2024-02-12T18:27:02.503Z,0
2024-02-12T18:32:00.365Z,1.333
2024-02-12T18:37:07.549Z,0
2024-02-12T18:42:06.626Z,0
2024-02-12T18:47:04.846Z,0
2024-02-12T18:52:08.336Z,0
2024-02-12T18:57:08.154Z,0
2024-02-12T19:02:09.464Z,0
2024-02-12T19:07:10.523Z,0
2024-02-12T19:12:04.337Z,0
2024-02-12T19:16:54.785Z,0
2024-02-12T19:22:00.238Z,3
2024-02-12T19:26:54.832Z,0
2024-02-12T19:32:04.837Z,0
2024-02-12T19:37:14.048Z,2
2024-02-12T19:42:05.792Z,0
2024-02-12T19:46:53.007Z,0
2024-02-12T19:52:01.999Z,2.5
2024-02-12T19:57:06.272Z,0
2024-02-12T20:02:03.479Z,0
2024-02-12T20:06:55.238Z,1
2024-02-12T20:11:54.081Z,0
2024-02-12T20:17:02.952Z,0
2024-02-12T20:21:51.676Z,0
2024-02-12T20:27:01.258Z,0
2024-02-12T20:31:56.499Z,1.5
2024-02-12T20:36:58.256Z,0
2024-02-12T20:41:53.692Z,0
2024-02-12T20:46:57.204Z,1.5
2024-02-12T20:51:59.208Z,0
2024-02-12T20:56:56.397Z,0
2024-02-12T21:02:00.747Z,0
2024-02-12T21:07:05.784Z,0
2024-02-12T21:11:57.445Z,0
2024-02-12T21:16:52.981Z,0
2024-02-12T21:21:54.093Z,0
2024-02-12T21:26:58.768Z,0
2024-02-12T21:31:54.055Z,1.5
2024-02-12T21:36:54.571Z,0
2024-02-12T21:41:56.922Z,0
2024-02-12T21:46:58.242Z,0
2024-02-12T21:52:03.680Z,0
2024-02-12T21:57:03.001Z,0
2024-02-12T22:02:07.694Z,0
2024-02-12T22:07:02.339Z,0
2024-02-12T22:12:05.373Z,0
2024-02-12T22:17:03.715Z,0
2024-02-12T22:22:04.355Z,0
2024-02-12T22:27:06.595Z,0
2024-02-12T22:32:06.235Z,0
2024-02-12T22:37:02.439Z,0
2024-02-12T22:42:00.372Z,0
2024-02-12T22:47:00.790Z,0
2024-02-12T22:51:57.895Z,0
2024-02-12T22:56:57.689Z,0
2024-02-12T23:02:16.896Z,0
2024-02-12T23:07:01.078Z,0
2024-02-12T23:11:47.904Z,0
2024-02-12T23:16:55.889Z,0
2024-02-12T23:21:56.640Z,0
2024-02-12T23:26:58.901Z,0
2024-02-12T23:31:53.750Z,0
2024-02-12T23:36:52.780Z,0
2024-02-12T23:41:48.694Z,0
2024-02-12T23:46:57.066Z,0
2024-02-12T23:51:50.821Z,3
2024-02-12T23:56:47.080Z,0
